createdAt,value
2018-07-15T00:00:01.523Z,931.18
2018-07-15T00:01:01.501Z,931.19
2018-07-15T00:02:01.486Z,931.20
2018-07-15T00:03:01.524Z,931.19
2018-07-15T00:04:01.432Z,931.21
2018-07-15T00:05:01.416Z,931.21
2018-07-15T00:06:01.394Z,931.19
2018-07-15T00:07:01.370Z,931.19
2018-07-15T00:08:01.345Z,931.23
2018-07-15T00:09:01.327Z,931.21
2018-07-15T00:10:01.304Z,931.22
2018-07-15T00:11:01.274Z,931.20
2018-07-15T00:12:01.261Z,931.25
2018-07-15T00:13:01.236Z,931.23
2018-07-15T00:14:01.211Z,931.25
2018-07-15T00:15:01.179Z,931.25
2018-07-15T00:16:01.174Z,931.20
2018-07-15T00:17:01.209Z,931.24
2018-07-15T00:18:01.127Z,931.27
2018-07-15T00:19:01.105Z,931.26
2018-07-15T00:20:01.083Z,931.28
2018-07-15T00:21:01.060Z,931.31
2018-07-15T00:22:01.032Z,931.29
2018-07-15T00:23:01.021Z,931.30
2018-07-15T00:24:00.983Z,931.29
2018-07-15T00:25:00.967Z,931.27
2018-07-15T00:26:00.943Z,931.26
2018-07-15T00:27:00.912Z,931.31
2018-07-15T00:28:00.898Z,931.29
2018-07-15T00:29:00.885Z,931.29
2018-07-15T00:30:00.841Z,931.32
2018-07-15T00:31:00.821Z,931.33
2018-07-15T00:32:00.812Z,931.33
2018-07-15T00:33:00.785Z,931.33
2018-07-15T00:34:00.754Z,931.32
2018-07-15T00:35:00.746Z,931.33
2018-07-15T00:36:00.705Z,931.33
2018-07-15T00:37:00.681Z,931.31
2018-07-15T00:38:00.680Z,931.33
2018-07-15T00:39:00.656Z,931.31
2018-07-15T00:40:00.633Z,931.33
2018-07-15T00:41:00.612Z,931.31
2018-07-15T00:42:00.575Z,931.31
2018-07-15T00:43:00.569Z,931.29
2018-07-15T00:44:00.524Z,931.35
2018-07-15T00:45:00.523Z,931.32
2018-07-15T00:46:00.499Z,931.31
2018-07-15T00:47:00.476Z,931.29
2018-07-15T00:48:00.438Z,931.26
2018-07-15T00:49:00.438Z,931.30
2018-07-15T00:50:00.408Z,931.27
2018-07-15T00:51:00.387Z,931.26
2018-07-15T00:52:00.370Z,931.26
2018-07-15T00:53:00.341Z,931.18
2018-07-15T00:54:00.321Z,931.24
2018-07-15T00:55:00.280Z,931.23
2018-07-15T00:56:00.277Z,931.20
2018-07-15T00:57:00.252Z,931.18
2018-07-15T00:58:00.232Z,931.21
2018-07-15T00:59:00.207Z,931.22
2018-07-15T01:00:00.184Z,931.21
2018-07-15T01:01:00.159Z,931.23
2018-07-15T01:02:00.145Z,931.24
2018-07-15T01:03:00.116Z,931.20
2018-07-15T01:04:00.093Z,931.22
2018-07-15T01:05:00.055Z,931.23
2018-07-15T01:06:00.049Z,931.24
2018-07-15T01:07:00.018Z,931.25
2018-07-15T01:08:00.011Z,931.26
2018-07-15T01:08:59.981Z,931.26
2018-07-15T01:09:59.960Z,931.27
2018-07-15T01:10:59.941Z,931.26
2018-07-15T01:11:59.914Z,931.28
2018-07-15T01:12:59.896Z,931.26
2018-07-15T01:13:59.860Z,931.27
2018-07-15T01:14:59.848Z,931.22
2018-07-15T01:15:59.824Z,931.29
2018-07-15T01:16:59.805Z,931.27
2018-07-15T01:17:59.777Z,931.29
2018-07-15T01:18:59.757Z,931.27
2018-07-15T01:19:59.743Z,931.24
2018-07-15T01:20:59.711Z,931.24
2018-07-15T01:21:59.691Z,931.22
2018-07-15T01:22:59.667Z,931.27
2018-07-15T01:23:59.638Z,931.28
2018-07-15T01:24:59.624Z,931.29
2018-07-15T01:25:59.602Z,931.32
2018-07-15T01:26:59.561Z,931.28
2018-07-15T01:27:59.557Z,931.30
2018-07-15T01:28:59.532Z,931.28
2018-07-15T01:29:59.512Z,931.21
2018-07-15T01:30:59.491Z,931.21
2018-07-15T01:31:59.469Z,931.22
2018-07-15T01:32:59.429Z,931.25
2018-07-15T01:33:59.415Z,931.25
2018-07-15T01:34:59.402Z,931.19
2018-07-15T01:35:59.372Z,931.22
2018-07-15T01:36:59.352Z,931.20
2018-07-15T01:37:59.333Z,931.23
2018-07-15T01:38:59.309Z,931.21
2018-07-15T01:39:59.284Z,931.23
2018-07-15T01:40:59.261Z,931.23
2018-07-15T01:41:59.224Z,931.22
2018-07-15T01:42:59.200Z,931.25
2018-07-15T01:43:59.202Z,931.19
2018-07-15T01:44:59.171Z,931.27
2018-07-15T01:45:59.148Z,931.23
2018-07-15T01:46:59.125Z,931.25
2018-07-15T01:47:59.104Z,931.24
2018-07-15T01:48:59.082Z,931.25
2018-07-15T01:49:59.057Z,931.24
2018-07-15T01:50:59.019Z,931.25
2018-07-15T01:51:59.013Z,931.25
2018-07-15T01:52:58.998Z,931.25
2018-07-15T01:53:58.967Z,931.28
2018-07-15T01:54:58.944Z,931.28
2018-07-15T01:55:58.920Z,931.29
2018-07-15T01:56:58.900Z,931.31
2018-07-15T01:57:58.858Z,931.34
2018-07-15T01:58:58.855Z,931.25
2018-07-15T01:59:58.814Z,931.33
2018-07-15T02:00:58.818Z,931.26
2018-07-15T02:01:58.789Z,931.32
2018-07-15T02:02:58.761Z,931.32
2018-07-15T02:03:58.748Z,931.27
2018-07-15T02:04:58.716Z,931.27
2018-07-15T02:05:58.691Z,931.28
2018-07-15T02:06:58.677Z,931.26
2018-07-15T02:07:58.645Z,931.24
2018-07-15T02:08:58.624Z,931.27
2018-07-15T02:09:58.596Z,931.27
2018-07-15T02:10:58.588Z,931.25
2018-07-15T02:11:58.557Z,931.22
2018-07-15T02:12:58.534Z,931.16
2018-07-15T02:13:58.511Z,931.16
2018-07-15T02:14:58.487Z,931.20
2018-07-15T02:15:58.458Z,931.23
2018-07-15T02:16:58.446Z,931.23
2018-07-15T02:17:58.422Z,931.22
2018-07-15T02:18:58.400Z,931.17
2018-07-15T02:19:58.370Z,931.19
2018-07-15T02:20:58.354Z,931.24
2018-07-15T02:21:58.329Z,931.24
2018-07-15T02:22:58.301Z,931.17
2018-07-15T02:23:58.280Z,931.23
2018-07-15T02:24:58.244Z,931.24
2018-07-15T02:25:58.234Z,931.25
2018-07-15T02:26:58.210Z,931.24
2018-07-15T02:27:58.188Z,931.25
2018-07-15T02:28:58.151Z,931.25
2018-07-15T02:29:58.127Z,931.30
2018-07-15T02:30:58.115Z,931.32
2018-07-15T02:31:58.099Z,931.26
2018-07-15T02:32:58.068Z,931.29
2018-07-15T02:33:58.052Z,931.29
2018-07-15T02:34:58.030Z,931.33
2018-07-15T02:35:58.007Z,931.31
2018-07-15T02:36:57.985Z,931.29
2018-07-15T02:37:57.961Z,931.28
2018-07-15T02:38:57.921Z,931.30
2018-07-15T02:39:57.911Z,931.31
2018-07-15T02:40:57.891Z,931.28
2018-07-15T02:41:57.850Z,931.27
2018-07-15T02:42:57.829Z,931.28
2018-07-15T02:43:57.824Z,931.28
2018-07-15T02:44:57.808Z,931.22
2018-07-15T02:45:57.770Z,931.24
2018-07-15T02:46:57.748Z,931.25
2018-07-15T02:47:57.721Z,931.27
2018-07-15T02:48:57.702Z,931.29
2018-07-15T02:49:57.681Z,931.27
2018-07-15T02:50:57.655Z,931.25
2018-07-15T02:51:57.632Z,931.19
2018-07-15T02:52:57.605Z,931.23
2018-07-15T02:53:57.587Z,931.25
2018-07-15T02:54:57.561Z,931.24
2018-07-15T02:55:57.540Z,931.23
2018-07-15T02:56:57.510Z,931.20
2018-07-15T02:57:57.496Z,931.22
2018-07-15T02:58:57.471Z,931.22
2018-07-15T02:59:57.431Z,931.21
2018-07-15T03:00:57.427Z,931.23
2018-07-15T03:01:57.398Z,931.20
2018-07-15T03:02:57.371Z,931.24
2018-07-15T03:03:57.355Z,931.22
2018-07-15T03:04:57.330Z,931.23
2018-07-15T03:05:57.291Z,931.23
2018-07-15T03:06:57.280Z,931.26
2018-07-15T03:07:57.262Z,931.26
2018-07-15T03:08:57.236Z,931.28
2018-07-15T03:09:57.211Z,931.26
2018-07-15T03:10:57.189Z,931.26
2018-07-15T03:11:57.169Z,931.23
2018-07-15T03:12:57.142Z,931.22
2018-07-15T03:13:57.101Z,931.16
2018-07-15T03:14:57.078Z,931.15
2018-07-15T03:15:57.068Z,931.21
2018-07-15T03:16:57.045Z,931.15
2018-07-15T03:17:57.066Z,931.22
2018-07-15T03:18:57.004Z,931.22
2018-07-15T03:19:56.981Z,931.23
2018-07-15T03:20:56.956Z,931.17
2018-07-15T03:21:56.935Z,931.20
2018-07-15T03:22:56.908Z,931.19
2018-07-15T03:23:56.886Z,931.17
2018-07-15T03:24:56.867Z,931.20
2018-07-15T03:25:56.837Z,931.22
2018-07-15T03:26:56.800Z,931.17
2018-07-15T03:27:56.792Z,931.18
2018-07-15T03:28:56.767Z,931.17
2018-07-15T03:29:56.751Z,931.20
2018-07-15T03:30:56.725Z,931.17
2018-07-15T03:31:56.698Z,931.20
2018-07-15T03:32:56.672Z,931.19
2018-07-15T03:33:56.654Z,931.18
2018-07-15T03:34:56.624Z,931.19
2018-07-15T03:35:56.587Z,931.24
2018-07-15T03:36:56.581Z,931.20
2018-07-15T03:37:56.554Z,931.19
2018-07-15T03:38:56.536Z,931.20
2018-07-15T03:39:56.571Z,931.21
2018-07-15T03:40:56.482Z,931.23
2018-07-15T03:41:56.459Z,931.18
2018-07-15T03:42:56.439Z,931.23
2018-07-15T03:43:56.417Z,931.20
2018-07-15T03:44:56.398Z,931.18
2018-07-15T03:45:56.367Z,931.22
2018-07-15T03:46:56.333Z,931.26
2018-07-15T03:47:56.321Z,931.28
2018-07-15T03:48:56.293Z,931.28
2018-07-15T03:49:56.253Z,931.24
2018-07-15T03:50:56.238Z,931.28
2018-07-15T03:51:56.228Z,931.25
2018-07-15T03:52:56.202Z,931.23
2018-07-15T03:53:56.165Z,931.28
2018-07-15T03:54:56.152Z,931.29
2018-07-15T03:55:56.297Z,931.31
2018-07-15T03:56:56.094Z,931.24
2018-07-15T03:57:56.083Z,931.23
2018-07-15T03:58:56.059Z,931.23
2018-07-15T03:59:56.040Z,931.22
2018-07-15T04:00:56.014Z,931.25
2018-07-15T04:01:55.975Z,931.21
2018-07-15T04:02:55.953Z,931.26
2018-07-15T04:03:55.943Z,931.24
2018-07-15T04:04:55.922Z,931.25
2018-07-15T04:05:55.894Z,931.26
2018-07-15T04:06:55.871Z,931.25
2018-07-15T04:07:55.850Z,931.27
2018-07-15T04:08:55.940Z,931.26
2018-07-15T04:09:55.805Z,931.20
2018-07-15T04:10:55.783Z,931.21
2018-07-15T04:11:55.747Z,931.24
2018-07-15T04:12:55.729Z,931.20
2018-07-15T04:13:55.703Z,931.21
2018-07-15T04:14:55.683Z,931.22
2018-07-15T04:15:55.655Z,931.23
2018-07-15T04:16:55.631Z,931.25
2018-07-15T04:17:55.610Z,931.19
2018-07-15T04:18:55.583Z,931.18
2018-07-15T04:19:55.560Z,931.20
2018-07-15T04:20:55.540Z,931.20
2018-07-15T04:21:55.515Z,931.23
2018-07-15T04:22:55.475Z,931.22
2018-07-15T04:23:55.466Z,931.24
2018-07-15T04:24:55.442Z,931.25
2018-07-15T04:25:55.420Z,931.24
2018-07-15T04:26:55.395Z,931.23
2018-07-15T04:27:55.369Z,931.22
2018-07-15T04:28:55.345Z,931.19
2018-07-15T04:29:55.304Z,931.20
2018-07-15T04:30:55.296Z,931.15
2018-07-15T04:31:55.272Z,931.15
2018-07-15T04:32:55.246Z,931.16
2018-07-15T04:33:55.226Z,931.13
2018-07-15T04:34:55.203Z,931.13
2018-07-15T04:35:55.176Z,931.10
2018-07-15T04:36:55.136Z,931.05
2018-07-15T04:37:55.139Z,931.11
2018-07-15T04:38:55.089Z,931.08
2018-07-15T04:39:55.123Z,931.03
2018-07-15T04:40:55.065Z,931.08
2018-07-15T04:41:55.037Z,931.05
2018-07-15T04:42:55.005Z,931.05
2018-07-15T04:43:55.071Z,931.03
2018-07-15T04:44:54.956Z,931.04
2018-07-15T04:45:54.933Z,931.07
2018-07-15T04:46:54.917Z,931.05
2018-07-15T04:47:54.888Z,931.04
2018-07-15T04:48:54.849Z,931.01
2018-07-15T04:49:54.849Z,930.94
2018-07-15T04:50:54.825Z,931.03
2018-07-15T04:51:54.796Z,931.03
2018-07-15T04:52:54.771Z,930.98
2018-07-15T04:53:54.745Z,930.98
2018-07-15T04:54:54.707Z,930.97
2018-07-15T04:55:54.700Z,930.98
2018-07-15T04:56:54.666Z,931.00
2018-07-15T04:57:54.649Z,930.99
2018-07-15T04:58:54.620Z,931.02
2018-07-15T04:59:54.603Z,930.98
2018-07-15T05:00:54.562Z,930.96
2018-07-15T05:01:54.611Z,930.97
2018-07-15T05:02:54.512Z,930.97
2018-07-15T05:03:54.509Z,930.92
2018-07-15T05:04:54.480Z,930.94
2018-07-15T05:07:38.154Z,930.88
2018-07-15T05:08:38.139Z,930.90
2018-07-15T05:09:38.098Z,930.89
2018-07-15T05:10:38.084Z,930.87
2018-07-15T05:11:38.060Z,930.87
2018-07-15T05:12:38.036Z,930.85
2018-07-15T05:13:38.011Z,930.82
2018-07-15T05:14:37.992Z,930.79
2018-07-15T05:15:37.953Z,930.83
2018-07-15T05:16:37.946Z,930.84
2018-07-15T05:17:37.921Z,930.86
2018-07-15T05:18:37.895Z,930.82
2018-07-15T05:19:37.866Z,930.82
2018-07-15T05:20:37.847Z,930.74
2018-07-15T05:21:37.820Z,930.79
2018-07-15T05:22:37.791Z,930.73
2018-07-15T05:23:37.773Z,930.80
2018-07-15T05:24:37.746Z,930.74
2018-07-15T05:25:37.723Z,930.79
2018-07-15T05:26:37.703Z,930.72
2018-07-15T05:27:37.671Z,930.70
2018-07-15T05:28:37.651Z,930.70
2018-07-15T05:29:37.614Z,930.67
2018-07-15T05:30:37.602Z,930.70
2018-07-15T05:31:37.576Z,930.71
2018-07-15T05:32:37.558Z,930.66
2018-07-15T05:33:37.514Z,930.65
2018-07-15T05:34:37.505Z,930.66
2018-07-15T05:35:37.471Z,930.69
2018-07-15T05:36:37.445Z,930.68
2018-07-15T05:37:37.430Z,930.67
2018-07-15T05:38:37.406Z,930.73
2018-07-15T05:39:37.385Z,930.66
2018-07-15T05:40:37.356Z,930.66
2018-07-15T05:41:37.335Z,930.67
2018-07-15T05:42:37.314Z,930.63
2018-07-15T05:43:37.288Z,930.63
2018-07-15T05:44:37.248Z,930.61
2018-07-15T05:45:37.244Z,930.66
2018-07-15T05:46:37.197Z,930.61
2018-07-15T05:47:37.192Z,930.65
2018-07-15T05:48:37.167Z,930.63
2018-07-15T05:49:37.129Z,930.67
2018-07-15T05:50:37.108Z,930.68
2018-07-15T05:51:37.076Z,930.64
2018-07-15T05:52:37.070Z,930.66
2018-07-15T05:53:37.030Z,930.69
2018-07-15T05:54:37.018Z,930.65
2018-07-15T05:55:36.997Z,930.64
2018-07-15T05:56:36.977Z,930.58
2018-07-15T05:57:36.947Z,930.61
2018-07-15T05:58:36.904Z,930.64
2018-07-15T05:59:36.886Z,930.63
2018-07-15T06:00:36.858Z,930.64
2018-07-15T06:01:36.848Z,930.66
2018-07-15T06:02:36.824Z,930.65
2018-07-15T06:03:36.869Z,930.64
2018-07-15T06:04:36.788Z,930.63
2018-07-15T06:05:36.744Z,930.64
2018-07-15T06:06:36.721Z,930.64
2018-07-15T06:07:36.697Z,930.64
2018-07-15T06:08:36.671Z,930.67
2018-07-15T06:09:36.648Z,930.64
2018-07-15T06:10:36.645Z,930.65
2018-07-15T06:11:36.602Z,930.65
2018-07-15T06:12:36.573Z,930.63
2018-07-15T06:13:36.554Z,930.64
2018-07-15T06:14:36.503Z,930.63
2018-07-15T06:15:36.499Z,930.62
2018-07-15T06:16:36.483Z,930.63
2018-07-15T06:17:36.455Z,930.57
2018-07-15T06:18:36.412Z,930.56
2018-07-15T06:19:36.388Z,930.61
2018-07-15T06:20:36.374Z,930.63
2018-07-15T06:21:36.357Z,930.69
2018-07-15T06:22:36.370Z,930.68
2018-07-15T06:23:36.387Z,930.68
2018-07-15T06:24:36.284Z,930.64
2018-07-15T06:25:36.260Z,930.68
2018-07-15T06:26:36.234Z,930.68
2018-07-15T06:27:36.205Z,930.63
2018-07-15T06:28:36.180Z,930.65
2018-07-15T06:29:36.164Z,930.66
2018-07-15T06:30:36.132Z,930.61
2018-07-15T06:31:36.108Z,930.59
2018-07-15T06:32:36.084Z,930.60
2018-07-15T06:33:36.062Z,930.64
2018-07-15T06:34:36.019Z,930.62
2018-07-15T06:35:36.008Z,930.60
2018-07-15T06:36:35.986Z,930.61
2018-07-15T06:37:35.963Z,930.69
2018-07-15T06:38:35.941Z,930.65
2018-07-15T06:39:35.895Z,930.65
2018-07-15T06:40:35.877Z,930.66
2018-07-15T06:41:35.863Z,930.66
2018-07-15T06:42:35.834Z,930.65
2018-07-15T06:43:35.811Z,930.69
2018-07-15T06:44:35.788Z,930.63
2018-07-15T06:45:35.768Z,930.63
2018-07-15T06:46:35.735Z,930.60
2018-07-15T06:47:35.722Z,930.59
2018-07-15T06:48:35.695Z,930.60
2018-07-15T06:49:35.663Z,930.59
2018-07-15T06:50:35.635Z,930.59
2018-07-15T06:51:35.616Z,930.63
2018-07-15T06:52:35.592Z,930.61
2018-07-15T06:53:35.549Z,930.54
2018-07-15T06:54:35.541Z,930.55
2018-07-15T06:55:35.516Z,930.60
2018-07-15T06:56:35.490Z,930.63
2018-07-15T06:57:35.469Z,930.64
2018-07-15T06:58:35.446Z,930.61
2018-07-15T06:59:35.415Z,930.61
2018-07-15T07:00:35.393Z,930.61
2018-07-15T07:01:35.475Z,930.57
2018-07-15T07:02:35.344Z,930.65
2018-07-15T07:03:35.322Z,930.64
2018-07-15T07:04:35.278Z,930.66
2018-07-15T07:05:35.270Z,930.65
2018-07-15T07:06:35.247Z,930.64
2018-07-15T07:07:35.263Z,930.66
2018-07-15T07:08:35.194Z,930.65
2018-07-15T07:09:35.168Z,930.59
2018-07-15T07:10:35.147Z,930.61
2018-07-15T07:11:35.127Z,930.61
2018-07-15T07:12:35.100Z,930.63
2018-07-15T07:13:35.068Z,930.63
2018-07-15T07:14:35.044Z,930.62
2018-07-15T07:15:35.005Z,930.60
2018-07-15T07:16:34.995Z,930.60
2018-07-15T07:17:34.964Z,930.56
2018-07-15T07:18:34.934Z,930.55
2018-07-15T07:19:34.905Z,930.50
2018-07-15T07:20:34.951Z,930.55
2018-07-15T07:21:34.863Z,930.55
2018-07-15T07:22:34.851Z,930.58
2018-07-15T07:23:34.823Z,930.58
2018-07-15T07:24:34.799Z,930.60
2018-07-15T07:25:34.778Z,930.59
2018-07-15T07:26:34.748Z,930.59
2018-07-15T07:27:34.725Z,930.62
2018-07-15T07:28:34.700Z,930.63
2018-07-15T07:29:34.662Z,930.63
2018-07-15T07:30:34.653Z,930.60
2018-07-15T07:31:34.612Z,930.62
2018-07-15T07:32:34.604Z,930.67
2018-07-15T07:33:34.580Z,930.65
2018-07-15T07:34:34.553Z,930.68
2018-07-15T07:35:34.528Z,930.69
2018-07-15T07:36:34.502Z,930.70
2018-07-15T07:37:34.479Z,930.67
2018-07-15T07:38:34.477Z,930.67
2018-07-15T07:39:34.432Z,930.67
2018-07-15T07:40:34.407Z,930.69
2018-07-15T07:41:34.382Z,930.70
2018-07-15T07:42:34.354Z,930.71
2018-07-15T07:43:34.330Z,930.68
2018-07-15T07:44:34.308Z,930.73
2018-07-15T07:45:34.283Z,930.70
2018-07-15T07:46:34.260Z,930.73
2018-07-15T07:47:34.234Z,930.73
2018-07-15T07:48:34.207Z,930.71
2018-07-15T07:49:34.183Z,930.70
2018-07-15T07:50:34.157Z,930.73
2018-07-15T07:51:34.134Z,930.72
2018-07-15T07:52:34.106Z,930.76
2018-07-15T07:53:34.081Z,930.73
2018-07-15T07:54:34.062Z,930.76
2018-07-15T07:55:34.035Z,930.75
2018-07-15T07:56:34.011Z,930.78
2018-07-15T07:57:33.986Z,930.78
2018-07-15T07:58:33.944Z,930.81
2018-07-15T07:59:33.922Z,930.83
2018-07-15T08:00:33.892Z,930.84
2018-07-15T08:01:33.867Z,930.86
2018-07-15T08:02:33.855Z,930.84
2018-07-15T08:03:33.820Z,930.86
2018-07-15T08:04:33.808Z,930.79
2018-07-15T08:05:33.775Z,930.87
2018-07-15T08:06:33.749Z,930.85
2018-07-15T08:07:33.725Z,930.86
2018-07-15T08:08:33.712Z,930.83
2018-07-15T08:09:33.684Z,930.86
2018-07-15T08:10:33.645Z,930.84
2018-07-15T08:11:33.640Z,930.87
2018-07-15T08:12:33.612Z,930.84
2018-07-15T08:13:33.584Z,930.86
2018-07-15T08:14:33.563Z,930.87
2018-07-15T08:15:33.536Z,930.89
2018-07-15T08:17:06.719Z,930.84
2018-07-15T08:17:33.488Z,930.90
2018-07-15T08:18:33.473Z,930.92
2018-07-15T08:19:33.435Z,930.89
2018-07-15T08:20:33.401Z,930.94
2018-07-15T08:21:33.373Z,930.94
2018-07-15T08:22:33.432Z,930.92
2018-07-15T08:23:33.339Z,930.95
2018-07-15T08:24:33.314Z,930.98
2018-07-15T08:25:33.283Z,930.98
2018-07-15T08:26:33.262Z,930.97
2018-07-15T08:27:33.235Z,930.98
2018-07-15T08:28:33.322Z,930.98
2018-07-15T08:29:33.188Z,931.00
2018-07-15T08:30:33.161Z,931.00
2018-07-15T08:31:33.135Z,931.01
2018-07-15T08:32:33.100Z,930.99
2018-07-15T08:33:33.076Z,931.03
2018-07-15T08:34:33.058Z,931.00
2018-07-15T08:35:33.033Z,930.99
2018-07-15T08:36:32.993Z,931.04
2018-07-15T08:37:32.988Z,931.06
2018-07-15T08:38:32.957Z,931.10
2018-07-15T08:39:32.933Z,931.06
2018-07-15T08:40:32.938Z,931.08
2018-07-15T08:41:32.887Z,931.06
2018-07-15T08:42:32.859Z,931.06
2018-07-15T08:43:32.842Z,931.05
2018-07-15T08:44:32.813Z,931.09
2018-07-15T08:45:32.770Z,931.05
2018-07-15T08:46:32.769Z,931.03
2018-07-15T08:47:32.738Z,931.09
2018-07-15T08:48:32.716Z,931.07
2018-07-15T08:49:32.688Z,931.10
2018-07-15T08:50:32.661Z,931.10
2018-07-15T08:51:32.638Z,931.09
2018-07-15T08:52:32.611Z,931.05
2018-07-15T08:53:32.588Z,931.04
2018-07-15T08:54:32.589Z,931.15
2018-07-15T08:55:32.533Z,931.13
2018-07-15T08:56:32.499Z,931.14
2018-07-15T08:57:32.489Z,931.10
2018-07-15T08:58:32.462Z,931.19
2018-07-15T08:59:32.435Z,931.23
2018-07-15T09:00:32.399Z,931.24
2018-07-15T09:01:32.385Z,931.27
2018-07-15T09:02:32.365Z,931.22
2018-07-15T09:03:32.335Z,931.22
2018-07-15T09:04:32.316Z,931.24
2018-07-15T09:05:32.284Z,931.22
2018-07-15T09:06:32.258Z,931.22
2018-07-15T09:07:32.243Z,931.21
2018-07-15T09:08:32.209Z,931.22
2018-07-15T09:09:32.190Z,931.20
2018-07-15T09:10:32.169Z,931.25
2018-07-15T09:11:32.124Z,931.22
2018-07-15T09:12:32.115Z,931.27
2018-07-15T09:13:32.122Z,931.27
2018-07-15T09:14:32.058Z,931.31
2018-07-15T09:15:32.023Z,931.30
2018-07-15T09:16:32.016Z,931.33
2018-07-15T09:17:31.969Z,931.34
2018-07-15T09:18:31.966Z,931.35
2018-07-15T09:19:31.932Z,931.34
2018-07-15T09:20:31.915Z,931.34
2018-07-15T09:21:31.888Z,931.36
2018-07-15T09:22:31.860Z,931.37
2018-07-15T09:23:31.835Z,931.40
2018-07-15T09:24:31.943Z,931.40
2018-07-15T09:25:31.783Z,931.42
2018-07-15T09:26:31.757Z,931.40
2018-07-15T09:27:31.718Z,931.44
2018-07-15T09:28:31.711Z,931.42
2018-07-15T09:29:31.692Z,931.42
2018-07-15T09:30:31.655Z,931.44
2018-07-15T09:31:31.630Z,931.45
2018-07-15T09:32:31.657Z,931.47
2018-07-15T09:33:31.581Z,931.51
2018-07-15T09:34:31.551Z,931.51
2018-07-15T09:35:31.603Z,931.55
2018-07-15T09:36:31.509Z,931.52
2018-07-15T09:37:31.482Z,931.55
2018-07-15T09:38:31.454Z,931.58
2018-07-15T09:39:31.412Z,931.60
2018-07-15T09:40:31.407Z,931.66
2018-07-15T09:41:31.377Z,931.65
2018-07-15T09:42:31.355Z,931.61
2018-07-15T09:43:31.315Z,931.62
2018-07-15T09:44:31.301Z,931.62
2018-07-15T09:45:31.286Z,931.64
2018-07-15T09:46:31.249Z,931.66
2018-07-15T09:47:31.231Z,931.71
2018-07-15T09:48:31.202Z,931.69
2018-07-15T09:49:31.173Z,931.71
2018-07-15T09:50:31.146Z,931.73
2018-07-15T09:51:31.133Z,931.75
2018-07-15T09:52:31.091Z,931.79
2018-07-15T09:53:31.083Z,931.77
2018-07-15T09:54:31.054Z,931.80
2018-07-15T09:55:31.026Z,931.77
2018-07-15T09:56:30.997Z,931.81
2018-07-15T09:57:30.976Z,931.81
2018-07-15T09:58:30.949Z,931.83
2018-07-15T09:59:30.911Z,931.82
2018-07-15T10:00:30.901Z,931.84
2018-07-15T10:01:30.877Z,931.84
2018-07-15T10:02:30.850Z,931.90
2018-07-15T10:03:30.823Z,931.90
2018-07-15T10:04:30.857Z,931.89
2018-07-15T10:05:30.774Z,931.89
2018-07-15T10:06:30.751Z,931.95
2018-07-15T10:07:30.789Z,931.92
2018-07-15T10:08:30.706Z,931.97
2018-07-15T10:09:30.675Z,932.02
2018-07-15T10:10:30.743Z,932.03
2018-07-15T10:11:30.627Z,932.01
2018-07-15T10:12:30.605Z,932.07
2018-07-15T10:13:30.567Z,932.10
2018-07-15T10:14:30.553Z,932.12
2018-07-15T10:15:30.510Z,932.12
2018-07-15T10:16:30.501Z,932.16
2018-07-15T10:17:30.478Z,932.14
2018-07-15T10:19:03.718Z,932.17
2018-07-15T10:19:30.431Z,932.18
2018-07-15T10:20:30.404Z,932.17
2018-07-15T10:21:30.385Z,932.21
2018-07-15T10:22:30.343Z,932.24
2018-07-15T10:23:30.327Z,932.22
2018-07-15T10:24:30.304Z,932.23
2018-07-15T10:25:30.287Z,932.24
2018-07-15T10:26:30.274Z,932.27
2018-07-15T10:27:30.232Z,932.25
2018-07-15T10:28:30.211Z,932.27
2018-07-15T10:29:30.185Z,932.29
2018-07-15T10:30:30.161Z,932.31
2018-07-15T10:31:30.124Z,932.36
2018-07-15T10:32:30.105Z,932.39
2018-07-15T10:33:30.088Z,932.38
2018-07-15T10:34:30.071Z,932.38
2018-07-15T10:35:30.036Z,932.42
2018-07-15T10:36:30.006Z,932.41
2018-07-15T10:37:29.993Z,932.48
2018-07-15T10:38:29.974Z,932.46
2018-07-15T10:39:29.943Z,932.51
2018-07-15T10:40:29.926Z,932.55
2018-07-15T10:41:29.907Z,932.56
2018-07-15T10:42:29.877Z,932.59
2018-07-15T10:43:29.859Z,932.57
2018-07-15T10:44:29.836Z,932.61
2018-07-15T10:45:29.819Z,932.66
2018-07-15T10:46:29.787Z,932.67
2018-07-15T10:47:29.765Z,932.72
2018-07-15T10:48:29.739Z,932.76
2018-07-15T10:49:29.721Z,932.78
2018-07-15T10:50:29.697Z,932.74
2018-07-15T10:51:29.674Z,932.79
2018-07-15T10:52:29.649Z,932.85
2018-07-15T10:53:29.630Z,932.82
2018-07-15T10:54:29.606Z,932.84
2018-07-15T10:55:29.583Z,932.92
2018-07-15T10:56:29.568Z,932.93
2018-07-15T10:57:29.550Z,932.99
2018-07-15T10:58:29.517Z,933.00
2018-07-15T10:59:29.504Z,933.02
2018-07-15T11:00:29.467Z,932.96
2018-07-15T11:01:29.443Z,933.03
2018-07-15T11:02:29.432Z,933.07
2018-07-15T11:03:29.392Z,933.11
2018-07-15T11:04:29.390Z,933.12
2018-07-15T11:05:29.375Z,933.21
2018-07-15T11:06:29.447Z,933.16
2018-07-15T11:07:29.323Z,933.24
2018-07-15T11:08:29.305Z,933.23
2018-07-15T11:09:29.284Z,933.25
2018-07-15T11:10:29.266Z,933.25
2018-07-15T11:11:29.251Z,933.29
2018-07-15T11:12:29.220Z,933.31
2018-07-15T11:13:29.267Z,933.32
2018-07-15T11:14:29.178Z,933.33
2018-07-15T11:15:29.167Z,933.35
2018-07-15T11:16:29.148Z,933.38
2018-07-15T11:17:29.121Z,933.43
2018-07-15T11:18:29.099Z,933.43
2018-07-15T11:19:29.076Z,933.41
2018-07-15T11:20:29.056Z,933.45
2018-07-15T11:21:29.027Z,933.74
2018-07-15T11:22:29.104Z,934.10
2018-07-15T11:23:28.987Z,934.16
2018-07-15T11:24:28.978Z,934.17
2018-07-15T11:25:28.947Z,934.26
2018-07-15T11:26:28.936Z,934.34
2018-07-15T11:27:28.899Z,934.31
2018-07-15T11:28:28.896Z,934.28
2018-07-15T11:29:28.875Z,934.33
2018-07-15T11:30:28.857Z,934.30
2018-07-15T11:31:28.883Z,934.36
2018-07-15T11:32:28.820Z,934.12
2018-07-15T11:33:28.799Z,933.79
2018-07-15T11:34:28.775Z,933.80
2018-07-15T11:35:28.761Z,933.75
2018-07-15T11:36:28.723Z,933.79
2018-07-15T11:37:28.726Z,933.78
2018-07-15T11:38:28.703Z,933.86
2018-07-15T11:39:28.686Z,934.07
2018-07-15T11:40:28.659Z,934.41
2018-07-15T11:41:28.647Z,934.53
2018-07-15T11:42:28.627Z,934.56
2018-07-15T11:43:28.607Z,934.29
2018-07-15T11:44:28.569Z,933.98
2018-07-15T11:45:28.571Z,933.90
2018-07-15T11:46:28.545Z,933.92
2018-07-15T11:47:28.528Z,934.08
2018-07-15T11:48:28.517Z,934.45
2018-07-15T11:49:28.495Z,934.22
2018-07-15T11:50:28.470Z,933.90
2018-07-15T11:51:28.460Z,933.95
2018-07-15T11:52:28.434Z,933.97
2018-07-15T11:53:28.416Z,933.99
2018-07-15T11:55:01.610Z,934.05
2018-07-15T11:55:28.378Z,934.03
2018-07-15T11:56:28.361Z,934.05
2018-07-15T11:57:28.342Z,934.26
2018-07-15T11:58:28.321Z,934.33
2018-07-15T11:59:28.305Z,934.15
2018-07-15T12:00:28.283Z,934.13
2018-07-15T12:01:28.303Z,934.15
2018-07-15T12:02:28.235Z,934.10
2018-07-15T12:03:28.229Z,934.10
2018-07-15T12:04:28.207Z,934.19
2018-07-15T12:05:28.193Z,934.46
2018-07-15T12:06:28.175Z,934.67
2018-07-15T12:07:28.158Z,934.64
2018-07-15T12:08:28.140Z,934.73
2018-07-15T12:09:28.130Z,934.56
2018-07-15T12:10:28.107Z,934.27
2018-07-15T12:11:28.087Z,934.15
2018-07-15T12:12:28.069Z,934.21
2018-07-15T12:13:28.052Z,934.17
2018-07-15T12:14:28.034Z,934.23
2018-07-15T12:15:28.013Z,934.32
2018-07-15T12:16:28.000Z,934.39
2018-07-15T12:17:27.985Z,934.42
2018-07-15T12:18:27.967Z,934.41
2018-07-15T12:19:27.944Z,934.46
2018-07-15T12:20:27.947Z,934.45
2018-07-15T12:21:27.911Z,934.35
2018-07-15T12:22:27.894Z,934.35
2018-07-15T12:23:27.883Z,934.33
2018-07-15T12:24:27.860Z,934.37
2018-07-15T12:25:27.834Z,934.61
2018-07-15T12:26:27.832Z,934.71
2018-07-15T12:27:27.813Z,934.75
2018-07-15T12:28:27.800Z,934.83
2018-07-15T12:29:27.873Z,934.76